Time;durP1;ratioP1;P1;durP2;ratioP2;P2;SDS_P1;SDS_P2;PMS_P1;PMS_P2;Temp;Humidity;BMP_temperature;BMP_pressure;BME280_temperature;BME280_humidity;BME280_pressure;Samples;Min_cycle;Max_cycle;Signal;HPM_P1;HPM_P2
2022/10/21 05:02:29;;;;;;;13.93;10.02;;;;;;;5.04;100.00;62517.16;5164798;22;164750;-76
2022/10/21 05:04:56;;;;;;;12.88;9.18;;;;;;;5.13;100.00;62525.91;5062309;28;20204;-77
2022/10/21 05:07:23;;;;;;;16.23;10.20;;;;;;;5.24;100.00;62537.75;5053022;28;20252;-75
2022/10/21 05:09:50;;;;;;;13.40;9.43;;;;;;;5.32;100.00;62545.47;5045704;28;20198;-77
2022/10/21 05:12:17;;;;;;;12.18;8.80;;;;;;;5.31;100.00;62544.97;5045649;28;20272;-78
2022/10/21 05:14:43;;;;;;;16.65;10.65;;;;;;;5.38;100.00;62551.66;5046100;28;20232;-76
2022/10/21 05:17:10;;;;;;;20.95;10.45;;;;;;;5.34;100.00;62552.59;5048316;28;20248;-76
2022/10/21 05:19:38;;;;;;;14.55;10.40;;;;;;;5.36;100.00;62554.66;5047287;28;20197;-76
2022/10/21 05:22:05;;;;;;;14.52;10.70;;;;;;;5.42;100.00;62553.78;5045892;28;20232;-76
2022/10/21 05:24:32;;;;;;;16.83;11.88;;;;;;;5.40;100.00;62551.22;5047169;28;20198;-76
2022/10/21 05:26:59;;;;;;;13.95;11.38;;;;;;;5.43;100.00;62557.34;5039744;28;20242;-77
2022/10/21 05:29:26;;;;;;;19.73;11.27;;;;;;;5.49;100.00;62565.50;5026609;28;20217;-76
2022/10/21 05:31:53;;;;;;;18.13;12.25;;;;;;;5.58;100.00;62572.25;5028547;28;20222;-78
2022/10/21 05:34:19;;;;;;;16.98;11.93;;;;;;;5.66;100.00;62581.03;5027005;28;20226;-76
2022/10/21 05:36:49;;;;;;;19.30;11.45;;;;;;;5.75;100.00;62587.78;5044270;28;20230;-79
2022/10/21 05:39:16;;;;;;;17.42;11.27;;;;;;;5.82;100.00;62597.53;5049027;28;20194;-77
2022/10/21 05:41:42;;;;;;;15.35;12.13;;;;;;;5.89;100.00;62609.28;5046182;28;20232;-78
2022/10/21 05:44:09;;;;;;;19.45;11.82;;;;;;;5.96;100.00;62613.97;5046641;28;20495;-77
2022/10/21 05:46:37;;;;;;;19.25;13.70;;;;;;;6.12;100.00;62627.94;5048627;28;20294;-78
2022/10/21 05:49:05;;;;;;;15.65;11.15;;;;;;;6.08;100.00;62623.28;5046302;28;20443;-77
2022/10/21 05:51:32;;;;;;;16.23;12.30;;;;;;;6.22;100.00;62642.78;5045782;28;20281;-77
2022/10/21 05:54:04;;;;;;;20.80;13.25;;;;;;;6.17;100.00;62632.56;5046580;28;20387;-76
2022/10/21 05:56:32;;;;;;;21.75;13.88;;;;;;;6.29;100.00;62648.00;5049820;28;20210;-77
2022/10/21 05:58:59;;;;;;;26.42;15.35;;;;;;;6.41;100.00;62657.31;5046388;28;20240;-77
2022/10/21 06:01:26;;;;;;;16.50;13.50;;;;;;;6.48;100.00;62667.06;5047237;28;20218;-77
2022/10/21 06:03:53;;;;;;;26.85;14.43;;;;;;;6.52;100.00;62671.19;5028533;28;20383;-78
2022/10/21 06:06:20;;;;;;;20.42;14.00;;;;;;;6.44;100.00;62665.47;5026689;28;20281;-76
2022/10/21 06:08:46;;;;;;;20.45;14.65;;;;;;;6.54;100.00;62671.22;5028987;28;20235;-77
2022/10/21 06:11:17;;;;;;;24.25;13.50;;;;;;;6.69;100.00;62689.25;5029611;28;20232;-77
2022/10/21 06:13:44;;;;;;;24.58;12.80;;;;;;;6.76;100.00;62696.47;5047151;28;20248;-76
2022/10/21 06:16:13;;;;;;;19.70;11.88;;;;;;;6.77;100.00;62694.44;5046187;28;20249;-77
2022/10/21 06:18:41;;;;;;;20.00;12.90;;;;;;;6.90;100.00;62713.41;5048150;28;20198;-77
2022/10/21 06:21:08;;;;;;;23.92;14.23;;;;;;;6.81;100.00;62701.63;5044608;28;20244;-77
2022/10/21 06:23:35;;;;;;;21.88;13.82;;;;;;;6.83;100.00;62698.09;5047313;28;20506;-76
2022/10/21 06:26:04;;;;;;;19.35;14.35;;;;;;;6.93;100.00;62710.94;5045883;28;20265;-76
2022/10/21 06:28:35;;;;;;;19.05;14.13;;;;;;;6.89;100.00;62706.81;5026909;28;20202;-76
2022/10/21 06:31:02;;;;;;;31.17;14.20;;;;;;;6.98;100.00;62721.16;5038460;28;20229;-78
2022/10/21 06:33:29;;;;;;;38.22;14.80;;;;;;;7.08;100.00;62728.94;5035453;28;20205;-77
2022/10/21 06:35:56;;;;;;;20.48;14.00;;;;;;;7.10;100.00;62730.50;5045344;28;20238;-76
2022/10/21 06:38:24;;;;;;;26.17;14.98;;;;;;;7.17;100.00;62735.72;5029986;28;20191;-78
2022/10/21 06:40:52;;;;;;;21.05;13.73;;;;;;;7.27;100.00;62751.09;5050365;28;20257;-77
2022/10/21 06:43:19;;;;;;;27.60;16.05;;;;;;;7.45;100.00;62766.63;5038045;28;20212;-78
2022/10/21 06:45:47;;;;;;;22.75;13.85;;;;;;;7.60;100.00;62782.63;5047689;28;20248;-77
2022/10/21 06:48:14;;;;;;;31.58;14.98;;;;;;;7.61;100.00;62781.09;5047938;28;20198;-77
2022/10/21 06:50:41;;;;;;;30.88;16.17;;;;;;;7.70;100.00;62792.41;5049964;28;20410;-76
2022/10/21 06:53:08;;;;;;;24.92;15.45;;;;;;;7.77;100.00;62799.63;5045099;28;20260;-76
2022/10/21 06:55:35;;;;;;;21.58;14.52;;;;;;;7.93;100.00;62814.16;5045127;28;20236;-76
2022/10/21 06:58:02;;;;;;;25.85;14.90;;;;;;;7.93;100.00;62814.16;5047967;28;20218;-76
2022/10/21 07:00:29;;;;;;;21.40;15.30;;;;;;;7.96;100.00;62814.19;5036099;28;20412;-77
2022/10/21 07:02:57;;;;;;;30.30;16.75;;;;;;;8.15;100.00;62838.88;5024939;28;20273;-76
2022/10/21 07:05:24;;;;;;;29.65;15.70;;;;;;;8.27;100.00;62850.78;5031260;28;20211;-78
2022/10/21 07:07:51;;;;;;;29.77;15.43;;;;;;;8.33;100.00;62849.38;5040799;28;20292;-76
2022/10/21 07:10:18;;;;;;;22.30;16.27;;;;;;;8.47;100.00;62871.97;5033576;28;20222;-77
2022/10/21 07:12:46;;;;;;;21.42;14.98;;;;;;;8.51;100.00;62878.13;5045288;28;20226;-77
2022/10/21 07:15:13;;;;;;;21.60;14.48;;;;;;;8.57;100.00;62879.22;5032626;28;20254;-77
2022/10/21 07:17:40;;;;;;;22.75;15.10;;;;;;;8.65;100.00;62887.50;5037519;28;20248;-76
2022/10/21 07:20:09;;;;;;;32.53;15.40;;;;;;;8.76;100.00;62898.88;5047814;28;20277;-77
2022/10/21 07:22:36;;;;;;;26.48;15.20;;;;;;;8.91;100.00;62914.38;5033753;28;20219;-76
2022/10/21 07:25:03;;;;;;;24.65;14.15;;;;;;;8.92;100.00;62917.94;5044635;28;20205;-76
2022/10/21 07:27:30;;;;;;;22.25;14.30;;;;;;;9.01;100.00;62922.69;5034564;28;20233;-76
2022/10/21 07:29:57;;;;;;;18.65;13.52;;;;;;;9.05;100.00;62928.84;5047428;28;20205;-78
2022/10/21 07:32:24;;;;;;;23.75;14.65;;;;;;;9.18;100.00;62944.81;5045221;28;20568;-76
2022/10/21 07:34:51;;;;;;;22.73;14.48;;;;;;;9.17;100.00;62946.31;5044544;28;20517;-77
2022/10/21 07:37:19;;;;;;;18.65;13.52;;;;;;;9.19;100.00;62950.94;5045997;28;20284;-77
2022/10/21 07:39:46;;;;;;;23.20;13.77;;;;;;;9.18;100.00;62947.38;5052140;28;20198;-76
2022/10/21 07:42:12;;;;;;;28.00;14.23;;;;;;;9.24;100.00;62951.00;5046549;28;20221;-76
2022/10/21 07:44:39;;;;;;;18.17;13.30;;;;;;;9.41;100.00;62965.53;5046518;28;20198;-76
2022/10/21 07:47:06;;;;;;;27.13;13.70;;;;;;;9.46;100.00;62968.66;5052772;28;20225;-78
2022/10/21 07:49:33;;;;;;;19.92;12.60;;;;;;;9.68;100.00;62993.97;5050242;28;20221;-76
2022/10/21 07:52:00;;;;;;;15.40;11.68;;;;;;;9.91;100.00;63015.22;5048526;28;20542;-77
2022/10/21 07:54:29;;;;;;;18.98;12.45;;;;;;;10.03;100.00;63029.66;5050723;28;20202;-78
2022/10/21 07:56:57;;;;;;;20.98;10.90;;;;;;;10.05;100.00;63034.25;5050306;28;20545;-78
2022/10/21 07:59:24;;;;;;;16.45;12.95;;;;;;;10.15;100.00;63045.16;5047124;28;20198;-78
2022/10/21 08:01:51;;;;;;;13.70;10.32;;;;;;;10.12;100.00;63042.03;5049608;28;20248;-76
2022/10/21 08:04:23;;;;;;;16.35;11.27;;;;;;;10.39;100.00;63069.97;5042540;28;20233;-77
2022/10/21 08:06:50;;;;;;;17.25;11.10;;;;;;;10.44;100.00;63072.59;5039938;28;20234;-77
2022/10/21 08:09:17;;;;;;;17.55;11.63;;;;;;;10.59;100.00;63089.66;5048821;28;20228;-77
2022/10/21 08:11:45;;;;;;;15.68;11.02;;;;;;;10.61;99.27;63089.16;5048588;28;20217;-77
2022/10/21 08:14:12;;;;;;;17.92;11.38;;;;;;;10.67;99.89;63095.91;5047169;28;20244;-76
2022/10/21 08:16:40;;;;;;;16.23;11.18;;;;;;;10.93;98.74;63124.84;5050613;28;20276;-78
2022/10/21 08:19:08;;;;;;;18.75;11.15;;;;;;;10.90;96.70;63122.25;5034060;28;20411;-78
2022/10/21 08:21:36;;;;;;;16.17;10.73;;;;;;;10.78;96.95;63104.75;5027937;28;20445;-76
2022/10/21 08:24:04;;;;;;;18.75;12.00;;;;;;;10.79;97.12;63110.34;5027982;28;20526;-77
2022/10/21 08:26:31;;;;;;;17.17;12.07;;;;;;;10.93;97.12;63124.84;5038060;28;20214;-79
2022/10/21 08:29:02;;;;;;;15.00;11.15;;;;;;;10.94;96.55;63125.88;5038780;28;20209;-76
2022/10/21 08:31:28;;;;;;;14.32;11.30;;;;;;;11.02;95.93;63139.25;5044123;28;20238;-77
2022/10/21 08:33:55;;;;;;;19.42;11.60;;;;;;;10.94;95.54;63123.84;5043247;28;20202;-77
2022/10/21 08:36:24;;;;;;;15.88;11.02;;;;;;;10.88;95.81;63119.66;5038368;28;20397;-78
2022/10/21 08:38:52;;;;;;;18.00;10.60;;;;;;;10.76;96.47;63104.69;5035391;28;20216;-76
2022/10/21 08:41:39;;;;;;;18.08;12.10;;;;;;;10.78;96.42;63109.31;5040412;28;20454;-77
2022/10/21 08:44:17;;;;;;;16.70;10.38;;;;;;;10.70;97.30;63104.09;5046333;28;20257;-78
2022/10/21 08:46:49;;;;;;;14.68;11.05;;;;;;;10.88;97.54;63120.19;5031984;28;20226;-77
2022/10/21 08:49:23;;;;;;;22.85;11.93;;;;;;;11.24;96.75;63159.47;5050407;28;20209;-77
2022/10/21 08:51:55;;;;;;;14.82;9.77;;;;;;;11.42;94.22;63171.00;5038144;28;20226;-78
2022/10/21 08:54:30;;;;;;;15.80;11.65;;;;;;;11.59;92.83;63193.19;5033776;28;20198;-77
2022/10/21 08:56:59;;;;;;;14.48;11.05;;;;;;;11.67;91.35;63198.94;5048912;28;20467;-78
2022/10/21 08:59:27;;;;;;;18.23;11.70;;;;;;;11.40;91.49;63174.03;5047960;28;20214;-76
2022/10/21 09:02:02;;;;;;;17.42;10.82;;;;;;;11.52;91.00;63183.41;5040594;28;20633;-79
2022/10/21 09:04:39;;;;;;;15.80;10.57;;;;;;;11.63;90.87;63199.91;5048627;28;20202;-78
2022/10/21 09:07:14;;;;;;;17.48;11.80;;;;;;;11.57;91.76;63191.66;5035558;28;20281;-78
2022/10/21 09:09:48;;;;;;;19.20;11.93;;;;;;;11.55;92.95;63189.56;5038457;28;20229;-77
2022/10/21 09:12:24;;;;;;;16.95;10.57;;;;;;;11.54;91.12;63185.97;5040430;28;20304;-77
2022/10/21 09:15:06;;;;;;;19.88;11.75;;;;;;;11.58;91.33;63192.66;5042387;28;20201;-77
2022/10/21 09:17:56;;;;;;;17.70;10.85;;;;;;;11.55;91.55;63189.56;5044412;28;20225;-78
2022/10/21 09:20:41;;;;;;;20.35;11.90;;;;;;;11.52;92.24;63189.00;5047167;28;20239;-76
2022/10/21 09:23:35;;;;;;;14.00;10.77;;;;;;;11.71;91.86;63200.53;5046831;28;20190;-76
2022/10/21 09:26:13;;;;;;;17.23;12.07;;;;;;;11.87;91.06;63219.16;5044884;28;20443;-77
2022/10/21 09:28:40;;;;;;;15.88;11.70;;;;;;;12.14;89.48;63249.69;5043379;28;20435;-76
2022/10/21 09:31:15;;;;;;;17.20;10.95;;;;;;;12.45;86.97;63279.25;5044901;28;20263;-78
2022/10/21 09:33:46;;;;;;;12.82;9.77;;;;;;;12.50;85.18;63292.63;5046917;28;20193;-78
2022/10/21 09:36:19;;;;;;;16.00;10.35;;;;;;;12.66;83.67;63306.16;5047041;28;20293;-76
2022/10/21 09:38:53;;;;;;;15.55;10.82;;;;;;;12.78;83.21;63311.44;5038905;28;20277;-76
2022/10/21 09:41:22;;;;;;;14.15;10.38;;;;;;;13.08;82.54;63341.53;5046444;28;20221;-76
2022/10/21 09:43:50;;;;;;;13.27;9.48;;;;;;;13.33;80.17;63370.03;5048685;28;20194;-77
2022/10/21 09:46:19;;;;;;;10.65;9.43;;;;;;;13.32;79.30;63371.56;5043947;28;20249;-78
2022/10/21 09:48:49;;;;;;;17.23;10.05;;;;;;;13.39;78.73;63379.31;5034440;28;20448;-77
2022/10/21 09:51:19;;;;;;;19.20;10.43;;;;;;;13.48;78.51;63388.16;5051893;28;20413;-78
2022/10/21 09:53:49;;;;;;;14.38;10.65;;;;;;;13.45;76.74;63388.13;5047035;28;20425;-77
2022/10/21 09:56:20;;;;;;;14.10;9.98;;;;;;;13.22;77.42;63361.19;5037369;28;20508;-77
2022/10/21 09:59:02;;;;;;;13.57;10.32;;;;;;;13.01;78.23;63339.38;5036499;28;20198;-77
2022/10/21 10:01:31;;;;;;;16.27;10.23;;;;;;;13.09;78.61;63345.13;5041377;28;20249;-76
2022/10/21 10:03:58;;;;;;;17.45;10.80;;;;;;;13.08;77.86;63347.16;5044904;28;20213;-76
2022/10/21 10:06:32;;;;;;;13.60;10.00;;;;;;;13.05;77.44;63349.16;5046884;28;20230;-76
2022/10/21 10:09:08;;;;;;;13.35;10.43;;;;;;;13.09;78.73;63347.69;5030300;28;20203;-77
2022/10/21 10:11:49;;;;;;;14.52;10.38;;;;;;;13.22;80.36;63361.69;5033742;28;20225;-77
2022/10/21 10:14:25;;;;;;;15.43;10.77;;;;;;;13.42;77.99;63385.00;5059104;28;20197;-75
2022/10/21 10:16:53;;;;;;;16.52;10.43;;;;;;;13.51;77.93;63391.28;5046447;28;20446;-77
2022/10/21 10:19:21;;;;;;;16.67;11.00;;;;;;;13.58;75.74;63399.03;5045251;28;20198;-77
2022/10/21 10:22:08;;;;;;;16.80;10.30;;;;;;;13.73;75.68;63414.63;5026832;28;20219;-76
2022/10/21 10:24:35;;;;;;;13.43;10.20;;;;;;;13.90;75.05;63436.88;5046915;28;20201;-76
2022/10/21 10:27:04;;;;;;;15.25;10.45;;;;;;;13.80;74.08;63421.38;5046713;28;20249;-76
2022/10/21 10:29:33;;;;;;;14.15;9.88;;;;;;;13.81;73.33;63422.41;5044866;28;20325;-76
2022/10/21 10:32:03;;;;;;;13.25;10.00;;;;;;;13.76;74.44;63420.28;5044919;28;20225;-76
2022/10/21 10:34:33;;;;;;;13.05;9.75;;;;;;;13.92;73.83;63436.38;5029009;28;20261;-77
2022/10/21 10:37:04;;;;;;;13.32;10.27;;;;;;;13.93;72.85;63439.97;5032039;28;20237;-77
2022/10/21 10:39:36;;;;;;;12.82;9.75;;;;;;;13.73;74.39;63414.63;5047553;28;20202;-78
2022/10/21 10:42:04;;;;;;;13.57;10.20;;;;;;;13.77;74.14;63418.75;5042279;28;20221;-77
2022/10/21 10:44:35;;;;;;;16.52;9.95;;;;;;;13.64;74.89;63404.75;5037154;28;20335;-76
2022/10/21 10:47:06;;;;;;;14.07;10.02;;;;;;;13.54;75.70;63394.38;5043074;28;20292;-77
2022/10/21 10:49:40;;;;;;;17.13;9.82;;;;;;;13.67;75.36;63405.81;5047800;28;20198;-77
2022/10/21 10:52:20;;;;;;;13.13;10.48;;;;;;;13.47;76.79;63390.19;5024449;28;20218;-78
2022/10/21 10:54:47;;;;;;;12.95;10.23;;;;;;;13.81;74.85;63419.84;5039961;28;20229;-76
2022/10/21 10:57:18;;;;;;;16.27;9.85;;;;;;;14.05;76.43;63449.38;5048824;28;20239;-76
2022/10/21 10:59:50;;;;;;;16.08;11.43;;;;;;;14.36;73.28;63479.50;5036452;28;20528;-77
2022/10/21 11:02:28;;;;;;;13.32;9.63;;;;;;;14.58;70.96;63499.78;5044574;28;20285;-76
2022/10/21 11:05:17;;;;;;;17.25;10.65;;;;;;;14.75;70.15;63520.00;5039481;28;20189;-77
2022/10/21 11:07:48;;;;;;;21.00;12.18;;;;;;;14.54;69.13;63500.78;5041440;28;20237;-76
2022/10/21 11:10:31;;;;;;;14.45;9.75;;;;;;;14.61;69.29;63507.53;5044463;28;20201;-77
2022/10/21 11:12:59;;;;;;;13.10;10.30;;;;;;;14.88;68.78;63533.53;5037986;28;20232;-77
2022/10/21 11:15:32;;;;;;;14.07;10.65;;;;;;;15.05;66.66;63556.31;5043056;28;20216;-76
2022/10/21 11:18:08;;;;;;;13.73;10.55;;;;;;;15.02;65.79;63545.00;5044591;28;20537;-78
2022/10/21 11:20:41;;;;;;;11.90;9.65;;;;;;;15.08;67.81;63551.22;5028383;28;20498;-76
2022/10/21 11:23:31;;;;;;;12.90;10.15;;;;;;;15.18;70.50;63566.75;5047425;28;20202;-79
2022/10/21 11:26:06;;;;;;;17.52;10.38;;;;;;;15.13;65.85;63558.47;5034077;28;20378;-76
2022/10/21 11:28:39;;;;;;;13.75;10.30;;;;;;;14.95;67.45;63535.69;5038832;28;20264;-77
2022/10/21 11:31:19;;;;;;;11.50;9.50;;;;;;;15.11;65.16;63556.38;5043202;28;20221;-76
2022/10/21 11:33:56;;;;;;;14.50;10.23;;;;;;;15.13;67.07;63556.44;5043518;28;20194;-79
2022/10/21 11:36:30;;;;;;;12.55;10.13;;;;;;;15.44;66.44;63588.66;5041482;28;20229;-76
2022/10/21 11:39:34;;;;;;;13.63;10.75;;;;;;;15.62;65.28;63612.50;5045424;28;20231;-76
2022/10/21 11:42:12;;;;;;;12.88;10.25;;;;;;;15.69;62.09;63619.25;5032189;28;20216;-76
2022/10/21 11:44:51;;;;;;;12.38;10.20;;;;;;;15.74;64.28;63622.41;5044652;28;20471;-77
2022/10/21 11:47:27;;;;;;;13.07;9.57;;;;;;;15.78;62.64;63624.00;5045749;28;20228;-77
2022/10/21 11:50:03;;;;;;;10.45;8.95;;;;;;;15.69;61.57;63619.25;5034650;28;20203;-76
2022/10/21 11:52:42;;;;;;;11.88;9.38;;;;;;;15.59;61.14;63606.28;5046994;28;20227;-76
2022/10/21 11:55:33;;;;;;;12.88;8.75;;;;;;;15.41;62.45;63593.22;5038395;28;20204;-76
2022/10/21 11:58:12;;;;;;;14.43;9.25;;;;;;;15.43;62.01;63589.69;5046029;28;20241;-77
2022/10/21 12:00:49;;;;;;;13.35;9.00;;;;;;;15.60;61.19;63609.91;5037556;28;20489;-76
2022/10/21 12:03:39;;;;;;;15.60;9.75;;;;;;;15.58;60.32;63610.41;5028245;28;20202;-77
2022/10/21 12:06:16;;;;;;;13.05;9.80;;;;;;;15.64;60.46;63614.59;5043204;28;20275;-77
2022/10/21 12:08:48;;;;;;;13.80;9.68;;;;;;;15.61;60.88;63608.38;5044662;28;20501;-77
2022/10/21 12:11:19;;;;;;;11.48;9.43;;;;;;;15.37;62.08;63583.94;5047433;28;20513;-78
2022/10/21 12:13:50;;;;;;;9.93;8.93;;;;;;;15.60;62.62;63607.84;5043012;28;20431;-77
2022/10/21 12:16:19;;;;;;;15.95;10.20;;;;;;;15.84;60.21;63632.28;5045068;28;20268;-76
2022/10/21 12:18:51;;;;;;;11.90;10.07;;;;;;;16.01;60.23;63652.53;5047381;28;20225;-77
2022/10/21 12:21:23;;;;;;;14.07;9.30;;;;;;;16.14;58.87;63663.47;5028194;28;20269;-77
2022/10/21 12:23:55;;;;;;;11.75;9.02;;;;;;;16.30;59.45;63680.13;5042812;28;20209;-77
2022/10/21 12:26:28;;;;;;;12.55;8.82;;;;;;;16.35;58.14;63682.22;5049530;28;20221;-76
2022/10/21 12:28:59;;;;;;;10.50;9.02;;;;;;;16.31;60.40;63683.72;5034586;28;20202;-78
2022/10/21 12:31:37;;;;;;;12.45;9.57;;;;;;;16.44;58.74;63697.25;5039438;28;20255;-76
2022/10/21 12:34:06;;;;;;;14.52;10.07;;;;;;;16.49;55.68;63699.91;5046527;28;20208;-78
2022/10/21 12:36:43;;;;;;;13.25;9.73;;;;;;;16.29;57.55;63678.56;5040140;28;20259;-78
2022/10/21 12:39:15;;;;;;;19.98;9.23;;;;;;;16.44;58.79;63692.13;5034068;28;20437;-76
2022/10/21 12:41:44;;;;;;;9.38;8.40;;;;;;;16.52;58.09;63702.50;5038628;28;20217;-77
2022/10/21 12:44:23;;;;;;;12.95;9.63;;;;;;;16.58;56.66;63706.19;5048308;28;20497;-77
2022/10/21 12:46:52;;;;;;;12.55;8.90;;;;;;;16.67;58.23;63721.19;5046823;28;20217;-77
2022/10/21 12:49:23;;;;;;;12.32;9.60;;;;;;;16.85;58.83;63739.94;5039309;28;20222;-77
2022/10/21 12:51:55;;;;;;;9.90;8.88;;;;;;;17.04;57.90;63759.19;5037175;28;20264;-78
2022/10/21 12:54:25;;;;;;;13.02;9.20;;;;;;;16.98;57.51;63756.03;5033458;28;20224;-77
2022/10/21 12:57:00;;;;;;;14.13;9.07;;;;;;;17.14;55.73;63770.13;5034037;28;20237;-76
2022/10/21 12:59:31;;;;;;;10.80;9.35;;;;;;;17.25;55.36;63781.56;5028787;28;20194;-76
2022/10/21 13:02:34;;;;;;;13.15;9.55;;;;;;;17.26;54.19;63785.19;5043198;28;20228;-77
2022/10/21 13:05:02;;;;;;;13.57;9.02;;;;;;;17.36;54.28;63792.50;5038682;28;20201;-76
2022/10/21 13:07:33;;;;;;;13.10;8.35;;;;;;;17.41;53.57;63797.19;5049727;28;20221;-75
2022/10/21 13:10:30;;;;;;;10.65;8.45;;;;;;;17.40;52.58;63790.97;5046742;28;20235;-77
2022/10/21 13:13:32;;;;;;;12.50;8.50;;;;;;;17.46;52.99;63802.94;4986002;28;20591;-76
2022/10/21 13:16:01;;;;;;;11.30;9.00;;;;;;;17.50;52.58;63807.09;5043710;28;20193;-76
2022/10/21 13:18:57;;;;;;;9.98;8.25;;;;;;;17.53;51.93;63807.13;5046384;28;20236;-77
2022/10/21 13:21:37;;;;;;;10.35;8.27;;;;;;;17.42;52.74;63798.75;5043172;28;20232;-77
2022/10/21 13:24:14;;;;;;;10.60;9.38;;;;;;;17.50;51.84;63804.50;5057744;28;20201;-77
2022/10/21 13:26:47;;;;;;;12.95;9.60;;;;;;;17.59;51.58;63815.94;5043120;28;20221;-77
2022/10/21 13:29:48;;;;;;;11.63;8.63;;;;;;;17.62;51.72;63819.59;5048392;28;20186;-77
2022/10/21 13:32:27;;;;;;;13.02;8.60;;;;;;;17.74;51.14;63832.09;4967263;28;20246;-77
2022/10/21 13:35:12;;;;;;;12.27;8.85;;;;;;;17.76;50.74;63828.50;4966578;29;20191;-79
2022/10/21 13:37:42;;;;;;;12.00;8.35;;;;;;;17.71;50.30;63833.59;5008222;28;20241;-78
2022/10/21 13:40:17;;;;;;;10.00;8.52;;;;;;;17.49;51.37;63805.53;5039247;28;20204;-77
2022/10/21 13:42:49;;;;;;;10.57;9.10;;;;;;;17.37;52.58;63790.44;5031493;28;20233;-77
2022/10/21 13:45:27;;;;;;;10.10;8.23;;;;;;;17.49;52.10;63808.09;5050027;28;20201;-77
2022/10/21 13:48:02;;;;;;;10.43;8.25;;;;;;;17.35;52.30;63791.47;5045299;28;20267;-78
2022/10/21 13:50:33;;;;;;;12.68;8.75;;;;;;;17.45;51.63;63798.78;5048420;28;20197;-76
2022/10/21 13:53:03;;;;;;;9.80;8.18;;;;;;;17.54;51.39;63808.69;5042811;28;20217;-76
2022/10/21 13:55:31;;;;;;;7.25;6.03;;;;;;;17.67;50.91;63824.28;5047509;28;20311;-78
2022/10/21 13:57:58;;;;;;;10.85;8.10;;;;;;;17.69;49.59;63824.31;5047418;28;20311;-78
2022/10/21 14:00:28;;;;;;;12.43;7.70;;;;;;;17.59;50.31;63810.78;5049744;28;20357;-78
2022/10/21 14:03:01;;;;;;;9.05;7.68;;;;;;;17.70;50.03;63825.34;5047722;28;20229;-79
2022/10/21 14:05:35;;;;;;;11.98;8.63;;;;;;;17.80;49.85;63837.81;5041055;28;20198;-78
2022/10/21 14:08:03;;;;;;;9.05;8.13;;;;;;;17.76;49.59;63834.16;5034319;28;20616;-77
2022/10/21 14:10:32;;;;;;;8.57;7.47;;;;;;;17.60;49.95;63814.41;5045890;28;20209;-76
2022/10/21 14:12:59;;;;;;;7.35;6.13;;;;;;;17.61;50.15;63821.13;5046880;28;20419;-77
2022/10/21 14:15:37;;;;;;;10.63;7.60;;;;;;;17.65;49.59;63820.16;5047753;28;20194;-77
2022/10/21 14:18:05;;;;;;;11.90;8.15;;;;;;;17.45;49.96;63804.44;5039653;28;20427;-77
2022/10/21 14:20:35;;;;;;;9.20;7.85;;;;;;;17.52;49.76;63803.50;5035732;28;20194;-77
2022/10/21 14:23:04;;;;;;;11.65;9.00;;;;;;;17.54;50.44;63811.25;5042287;28;20509;-78
2022/10/21 14:25:33;;;;;;;12.30;9.15;;;;;;;17.51;51.21;63807.63;5047417;28;20194;-79
2022/10/21 14:28:03;;;;;;;12.98;9.55;;;;;;;17.40;51.91;63791.50;5045020;28;20269;-76
2022/10/21 14:30:35;;;;;;;17.85;10.65;;;;;;;17.18;53.35;63776.34;5046233;28;20202;-78
2022/10/21 14:33:05;;;;;;;11.02;9.20;;;;;;;16.83;54.66;63737.31;5034925;28;20221;-76
2022/10/21 14:35:32;;;;;;;11.57;9.25;;;;;;;16.61;55.50;63714.97;5035770;28;20199;-78
2022/10/21 14:38:00;;;;;;;12.10;8.80;;;;;;;16.35;57.01;63684.78;5047282;28;20279;-77
2022/10/21 14:40:31;;;;;;;14.90;9.27;;;;;;;16.03;58.08;63654.63;5045406;28;20201;-77
2022/10/21 14:43:01;;;;;;;13.57;8.80;;;;;;;15.76;59.16;63626.53;5044205;28;20228;-76
2022/10/21 14:45:30;;;;;;;13.82;9.00;;;;;;;15.46;60.81;63595.84;5026669;28;20198;-77
2022/10/21 14:48:08;;;;;;;9.50;8.50;;;;;;;15.22;62.70;63565.25;5045667;28;20240;-77
2022/10/21 14:50:36;;;;;;;12.52;9.20;;;;;;;14.89;65.09;63539.69;5046832;28;20205;-76
2022/10/21 14:53:03;;;;;;;12.25;9.35;;;;;;;14.56;68.00;63499.78;5038996;28;20249;-77
2022/10/21 14:55:30;;;;;;;12.20;9.02;;;;;;;14.35;69.63;63477.97;5045732;28;20210;-77
2022/10/21 14:58:05;;;;;;;16.33;9.85;;;;;;;14.11;71.94;63453.53;5044385;28;20449;-78
2022/10/21 15:00:36;;;;;;;12.68;9.23;;;;;;;13.86;72.76;63428.09;5028856;28;20208;-77
2022/10/21 15:03:03;;;;;;;12.25;9.50;;;;;;;13.68;74.98;63411.47;5027635;28;20401;-76
2022/10/21 15:05:34;;;;;;;12.30;9.18;;;;;;;13.54;75.71;63396.94;5026944;28;20206;-78
2022/10/21 15:08:31;;;;;;;13.55;9.32;;;;;;;13.35;77.78;63369.53;5029813;28;20277;-76
2022/10/21 15:11:22;;;;;;;17.75;10.98;;;;;;;13.19;79.57;63358.06;4985285;28;20196;-77
2022/10/21 15:14:06;;;;;;;13.30;9.48;;;;;;;12.96;80.55;63334.69;5024356;28;20199;-78
2022/10/21 15:16:34;;;;;;;12.25;9.77;;;;;;;12.90;81.10;63328.47;5028342;28;20222;-77
2022/10/21 15:19:08;;;;;;;12.82;9.05;;;;;;;12.78;81.53;63314.00;5026470;28;20221;-77
2022/10/21 15:21:37;;;;;;;13.75;9.43;;;;;;;12.61;82.78;63296.38;5032661;28;20225;-76
2022/10/21 15:24:06;;;;;;;11.82;10.18;;;;;;;12.56;83.01;63298.34;5043681;28;20249;-78
2022/10/21 15:26:36;;;;;;;13.25;9.50;;;;;;;12.47;83.59;63286.97;5035753;28;20218;-76
2022/10/21 15:29:14;;;;;;;12.32;8.70;;;;;;;12.38;84.23;63280.19;5043219;28;20220;-77
2022/10/21 15:31:41;;;;;;;14.77;9.18;;;;;;;12.27;85.08;63268.78;5047281;28;20256;-77
2022/10/21 15:34:13;;;;;;;13.68;9.27;;;;;;;12.07;86.15;63242.44;5041347;28;20198;-78
2022/10/21 15:36:58;;;;;;;13.02;9.25;;;;;;;11.91;87.17;63220.75;5043624;28;20300;-77
2022/10/21 15:39:25;;;;;;;11.35;8.82;;;;;;;11.81;87.78;63210.38;5043124;28;20240;-77
2022/10/21 15:41:54;;;;;;;11.05;8.50;;;;;;;11.81;87.72;63221.09;5043421;28;20391;-77
2022/10/21 15:44:25;;;;;;;17.13;9.10;;;;;;;11.71;88.56;63205.66;5042512;28;20427;-78
2022/10/21 15:46:58;;;;;;;14.57;9.05;;;;;;;11.60;88.92;63194.22;5047986;28;20282;-77
2022/10/21 15:49:27;;;;;;;11.57;9.57;;;;;;;11.54;88.92;63191.06;5038969;28;20202;-77
2022/10/21 15:51:54;;;;;;;10.77;8.45;;;;;;;11.43;89.41;63179.69;5024724;28;20523;-77
2022/10/21 15:54:21;;;;;;;9.85;8.18;;;;;;;11.44;89.41;63177.66;5036069;28;20194;-77
2022/10/21 15:56:51;;;;;;;12.45;10.35;;;;;;;11.41;89.31;63174.53;5045612;28;20236;-76
2022/10/21 15:59:20;;;;;;;12.02;9.50;;;;;;;11.38;89.27;63174.00;5046867;28;20263;-76
2022/10/21 16:01:49;;;;;;;11.05;9.57;;;;;;;11.37;89.28;63176.00;5047361;28;20222;-77
2022/10/21 16:04:16;;;;;;;13.07;9.50;;;;;;;11.24;89.69;63157.47;5042269;28;20206;-76
2022/10/21 16:06:47;;;;;;;14.32;8.93;;;;;;;11.17;90.34;63144.59;5051526;28;20237;-77
2022/10/21 16:09:14;;;;;;;15.60;9.40;;;;;;;11.17;90.10;63152.75;5049449;28;20442;-77
2022/10/21 16:11:41;;;;;;;13.57;9.02;;;;;;;11.13;90.54;63146.06;5048116;28;20233;-77
2022/10/21 16:14:13;;;;;;;12.88;8.52;;;;;;;11.13;89.45;63143.50;5044066;28;20206;-77
2022/10/21 16:16:47;;;;;;;13.45;10.05;;;;;;;11.16;89.39;63156.31;5050659;28;20444;-76
2022/10/21 16:19:16;;;;;;;17.40;9.60;;;;;;;11.08;89.66;63142.94;5039998;28;20231;-76
2022/10/21 16:21:43;;;;;;;15.68;9.63;;;;;;;11.11;89.45;63146.53;5046943;28;20370;-77
2022/10/21 16:24:11;;;;;;;20.00;10.75;;;;;;;11.14;89.06;63147.09;5050345;28;20222;-78
2022/10/21 16:26:41;;;;;;;16.38;10.05;;;;;;;11.13;88.74;63145.56;5045291;28;20241;-77
2022/10/21 16:29:10;;;;;;;13.20;8.68;;;;;;;11.03;89.31;63135.72;5045306;28;20194;-77
2022/10/21 16:31:37;;;;;;;11.98;8.68;;;;;;;10.97;89.55;63132.06;5036881;28;20225;-77
2022/10/21 16:34:04;;;;;;;17.33;9.60;;;;;;;10.85;90.33;63117.09;5041061;28;20205;-77
2022/10/21 16:36:36;;;;;;;12.27;8.18;;;;;;;10.86;90.20;63115.03;5048157;28;20301;-75
2022/10/21 16:39:04;;;;;;;10.70;8.25;;;;;;;10.74;90.63;63107.72;5038781;28;20233;-76
2022/10/21 16:41:34;;;;;;;9.00;7.88;;;;;;;10.61;91.70;63097.34;5007911;28;20257;-77
2022/10/21 16:44:02;;;;;;;9.07;7.13;;;;;;;10.60;90.74;63093.22;5006362;28;20214;-78